Portada
METAR-TAF:

METAR-TAF

Aeropuertos :

Aeropuerto Internacional Norman Manley

Kingston, Jamaica

latitud: 17-56N, longitud: 076-47W, altitud: 3 m

Observación

El informe se hizo hace 47 minutos, a las 00:00 UTC
Viento 24 kt del sureste
Temperatura 30°C
Humedad 52%
Presión 1014 hPa
Visibilidad 10 km o más
Escasas nubes a una altura de 2200 ft

METAR: MKJP 190000Z 13024KT 9999 FEW022 30/19 Q1014

Hora: 19:47 (00:47 UTC)

Pronóstico

El informe se hizo hace 1 hora y 32 minutos, a las 23:15 UTC
Pronóstico válido del 19 a las 00 UTC al 19 a las 24 UTC
Viento 18 kt del sureste
Visibilidad 10 km o más
Escasas nubes a una altura de 2200 ft
Evolucionando progresivamente
del 19 a las 14 UTC al 19 a las 16 UTC
Viento 15 kt del sureste
Temporalmente
del 19 a las 18 UTC al 19 a las 23 UTC
Cielo nuboso a una altura de 1800 ft
chaparrones de lluvia

TAF: MKJP 182315Z 1900/1924 14018KT 9999 FEW022 BECMG 1914/1916 14015KT TEMPO 1918/1923 SHRA BKN018

Observaciones y pronósticos meteorológicos de más de 4000 aeropuertos (mensajes METAR y TAF).

Los puntos amarillos y rojos representan las estaciones disponibles.

Ponga el ratón en el punto deseado para ver el nombre de la estación.

Haga clic para ver las observaciones y los pronósticos meteorológicos.

Para cambiar el mapa : haga clic en los botones verdes con una cruz de color negro para hacer un zoom, en el botón verde con un guión para alejar o en las flechas verdes para mapas adyacentes.


METAR-TAF: